sensor_id;sensor_type;location;lat;lon;timestamp;P1;durP1;ratioP1;P2;durP2;ratioP2
70455;SDS011;57916;51.996;5.180;2023-06-10T00:01:17;10.25;;;5.82;;
70455;SDS011;57916;51.996;5.180;2023-06-10T00:03:44;7.00;;;5.75;;
70455;SDS011;57916;51.996;5.180;2023-06-10T00:06:12;9.52;;;6.15;;
70455;SDS011;57916;51.996;5.180;2023-06-10T00:08:39;8.35;;;5.80;;
70455;SDS011;57916;51.996;5.180;2023-06-10T00:11:06;7.80;;;5.70;;
70455;SDS011;57916;51.996;5.180;2023-06-10T00:13:33;6.45;;;5.32;;
70455;SDS011;57916;51.996;5.180;2023-06-10T00:16:00;6.00;;;5.40;;
70455;SDS011;57916;51.996;5.180;2023-06-10T00:18:27;6.77;;;5.97;;
70455;SDS011;57916;51.996;5.180;2023-06-10T00:20:57;12.10;;;5.50;;
70455;SDS011;57916;51.996;5.180;2023-06-10T00:23:29;9.10;;;5.82;;
70455;SDS011;57916;51.996;5.180;2023-06-10T00:26:04;8.98;;;5.50;;
70455;SDS011;57916;51.996;5.180;2023-06-10T00:28:32;10.73;;;5.88;;
70455;SDS011;57916;51.996;5.180;2023-06-10T00:30:59;8.93;;;6.20;;
70455;SDS011;57916;51.996;5.180;2023-06-10T00:33:26;7.85;;;6.10;;
70455;SDS011;57916;51.996;5.180;2023-06-10T00:35:54;10.82;;;5.90;;
70455;SDS011;57916;51.996;5.180;2023-06-10T00:38:21;6.47;;;5.85;;
70455;SDS011;57916;51.996;5.180;2023-06-10T00:40:48;7.95;;;5.68;;
70455;SDS011;57916;51.996;5.180;2023-06-10T00:43:16;7.68;;;5.68;;
70455;SDS011;57916;51.996;5.180;2023-06-10T00:45:44;7.20;;;5.78;;
70455;SDS011;57916;51.996;5.180;2023-06-10T00:48:12;10.43;;;5.70;;
70455;SDS011;57916;51.996;5.180;2023-06-10T00:50:39;8.70;;;6.00;;
70455;SDS011;57916;51.996;5.180;2023-06-10T00:53:06;10.18;;;5.70;;
70455;SDS011;57916;51.996;5.180;2023-06-10T00:55:35;9.38;;;5.88;;
70455;SDS011;57916;51.996;5.180;2023-06-10T00:58:03;8.60;;;6.00;;
70455;SDS011;57916;51.996;5.180;2023-06-10T01:00:31;7.63;;;5.72;;
70455;SDS011;57916;51.996;5.180;2023-06-10T01:02:59;9.02;;;5.75;;
70455;SDS011;57916;51.996;5.180;2023-06-10T01:05:27;6.22;;;5.60;;
70455;SDS011;57916;51.996;5.180;2023-06-10T01:08:01;6.65;;;5.45;;
70455;SDS011;57916;51.996;5.180;2023-06-10T01:10:57;12.10;;;5.50;;
70455;SDS011;57916;51.996;5.180;2023-06-10T01:13:27;8.13;;;5.70;;
70455;SDS011;57916;51.996;5.180;2023-06-10T01:15:56;9.70;;;5.88;;
70455;SDS011;57916;51.996;5.180;2023-06-10T01:18:29;9.25;;;5.28;;
70455;SDS011;57916;51.996;5.180;2023-06-10T01:20:59;11.38;;;5.80;;
70455;SDS011;57916;51.996;5.180;2023-06-10T01:23:27;8.23;;;5.60;;
70455;SDS011;57916;51.996;5.180;2023-06-10T01:26:02;10.38;;;5.70;;
70455;SDS011;57916;51.996;5.180;2023-06-10T01:28:38;6.28;;;5.45;;
70455;SDS011;57916;51.996;5.180;2023-06-10T01:31:18;7.32;;;5.20;;
70455;SDS011;57916;51.996;5.180;2023-06-10T01:34:01;7.32;;;5.15;;
70455;SDS011;57916;51.996;5.180;2023-06-10T01:36:29;8.77;;;5.30;;
70455;SDS011;57916;51.996;5.180;2023-06-10T01:38:59;5.95;;;5.20;;
70455;SDS011;57916;51.996;5.180;2023-06-10T01:41:27;8.88;;;5.28;;
70455;SDS011;57916;51.996;5.180;2023-06-10T01:43:55;8.40;;;5.38;;
70455;SDS011;57916;51.996;5.180;2023-06-10T01:46:22;7.23;;;5.80;;
70455;SDS011;57916;51.996;5.180;2023-06-10T01:48:49;10.77;;;5.40;;
70455;SDS011;57916;51.996;5.180;2023-06-10T01:51:16;6.30;;;5.45;;
70455;SDS011;57916;51.996;5.180;2023-06-10T01:53:44;6.23;;;5.40;;
70455;SDS011;57916;51.996;5.180;2023-06-10T01:56:11;9.20;;;4.97;;
70455;SDS011;57916;51.996;5.180;2023-06-10T01:58:43;8.53;;;5.53;;
70455;SDS011;57916;51.996;5.180;2023-06-10T02:01:10;7.80;;;5.30;;
70455;SDS011;57916;51.996;5.180;2023-06-10T02:03:38;5.80;;;5.07;;
70455;SDS011;57916;51.996;5.180;2023-06-10T02:06:05;7.55;;;5.30;;
70455;SDS011;57916;51.996;5.180;2023-06-10T02:08:32;6.78;;;4.95;;
70455;SDS011;57916;51.996;5.180;2023-06-10T02:10:59;5.55;;;4.93;;
70455;SDS011;57916;51.996;5.180;2023-06-10T02:13:28;6.57;;;5.22;;
70455;SDS011;57916;51.996;5.180;2023-06-10T02:15:56;6.50;;;5.00;;
70455;SDS011;57916;51.996;5.180;2023-06-10T02:18:27;6.00;;;5.35;;
70455;SDS011;57916;51.996;5.180;2023-06-10T02:20:55;9.77;;;5.40;;
70455;SDS011;57916;51.996;5.180;2023-06-10T02:23:21;5.95;;;5.20;;
70455;SDS011;57916;51.996;5.180;2023-06-10T02:25:48;5.83;;;4.80;;
70455;SDS011;57916;51.996;5.180;2023-06-10T02:28:16;7.88;;;5.15;;
70455;SDS011;57916;51.996;5.180;2023-06-10T02:30:44;6.22;;;5.05;;
70455;SDS011;57916;51.996;5.180;2023-06-10T02:33:13;7.75;;;5.03;;
70455;SDS011;57916;51.996;5.180;2023-06-10T02:35:42;8.55;;;5.22;;
70455;SDS011;57916;51.996;5.180;2023-06-10T02:38:09;10.13;;;4.90;;
70455;SDS011;57916;51.996;5.180;2023-06-10T02:40:36;7.72;;;5.10;;
70455;SDS011;57916;51.996;5.180;2023-06-10T02:43:03;6.57;;;4.65;;
70455;SDS011;57916;51.996;5.180;2023-06-10T02:45:31;8.48;;;4.78;;
70455;SDS011;57916;51.996;5.180;2023-06-10T02:48:00;7.97;;;4.90;;
70455;SDS011;57916;51.996;5.180;2023-06-10T02:50:29;7.85;;;5.10;;
70455;SDS011;57916;51.996;5.180;2023-06-10T02:53:07;6.73;;;4.77;;
70455;SDS011;57916;51.996;5.180;2023-06-10T02:55:37;5.13;;;4.60;;
70455;SDS011;57916;51.996;5.180;2023-06-10T02:58:08;8.90;;;4.72;;
70455;SDS011;57916;51.996;5.180;2023-06-10T03:00:35;12.85;;;4.60;;
70455;SDS011;57916;51.996;5.180;2023-06-10T03:03:03;5.68;;;4.53;;
70455;SDS011;57916;51.996;5.180;2023-06-10T03:05:40;6.20;;;4.55;;
70455;SDS011;57916;51.996;5.180;2023-06-10T03:08:07;6.30;;;4.68;;
70455;SDS011;57916;51.996;5.180;2023-06-10T03:10:38;6.43;;;4.65;;
70455;SDS011;57916;51.996;5.180;2023-06-10T03:13:06;11.18;;;4.90;;
70455;SDS011;57916;51.996;5.180;2023-06-10T03:15:33;5.67;;;4.10;;
70455;SDS011;57916;51.996;5.180;2023-06-10T03:18:06;8.18;;;4.78;;
70455;SDS011;57916;51.996;5.180;2023-06-10T03:20:34;6.05;;;4.75;;
70455;SDS011;57916;51.996;5.180;2023-06-10T03:23:08;5.90;;;4.60;;
70455;SDS011;57916;51.996;5.180;2023-06-10T03:25:36;6.70;;;4.63;;
70455;SDS011;57916;51.996;5.180;2023-06-10T03:28:04;5.97;;;4.40;;
70455;SDS011;57916;51.996;5.180;2023-06-10T03:30:32;5.43;;;4.38;;
70455;SDS011;57916;51.996;5.180;2023-06-10T03:32:59;7.17;;;4.77;;
70455;SDS011;57916;51.996;5.180;2023-06-10T03:35:28;7.80;;;4.20;;
70455;SDS011;57916;51.996;5.180;2023-06-10T03:37:56;5.30;;;3.88;;
70455;SDS011;57916;51.996;5.180;2023-06-10T03:40:24;8.23;;;5.30;;
70455;SDS011;57916;51.996;5.180;2023-06-10T03:42:51;6.77;;;4.47;;
70455;SDS011;57916;51.996;5.180;2023-06-10T03:45:19;7.30;;;4.50;;
70455;SDS011;57916;51.996;5.180;2023-06-10T03:47:48;7.28;;;4.72;;
70455;SDS011;57916;51.996;5.180;2023-06-10T03:50:18;9.10;;;4.95;;
70455;SDS011;57916;51.996;5.180;2023-06-10T03:52:46;9.40;;;4.90;;
70455;SDS011;57916;51.996;5.180;2023-06-10T03:55:15;10.43;;;5.10;;
70455;SDS011;57916;51.996;5.180;2023-06-10T03:57:44;9.63;;;4.53;;
70455;SDS011;57916;51.996;5.180;2023-06-10T04:00:11;5.60;;;4.25;;
70455;SDS011;57916;51.996;5.180;2023-06-10T04:02:42;6.18;;;4.47;;
70455;SDS011;57916;51.996;5.180;2023-06-10T04:05:20;7.22;;;4.53;;
70455;SDS011;57916;51.996;5.180;2023-06-10T04:07:56;9.88;;;4.90;;
70455;SDS011;57916;51.996;5.180;2023-06-10T04:10:23;7.22;;;4.47;;
70455;SDS011;57916;51.996;5.180;2023-06-10T04:12:50;5.65;;;4.53;;
70455;SDS011;57916;51.996;5.180;2023-06-10T04:15:18;6.03;;;4.70;;
70455;SDS011;57916;51.996;5.180;2023-06-10T04:17:45;6.95;;;4.65;;
70455;SDS011;57916;51.996;5.180;2023-06-10T04:20:13;9.35;;;4.65;;
70455;SDS011;57916;51.996;5.180;2023-06-10T04:22:43;8.63;;;4.93;;
70455;SDS011;57916;51.996;5.180;2023-06-10T04:25:11;9.32;;;4.45;;
70455;SDS011;57916;51.996;5.180;2023-06-10T04:27:39;6.82;;;4.40;;
70455;SDS011;57916;51.996;5.180;2023-06-10T04:30:07;5.95;;;4.20;;
70455;SDS011;57916;51.996;5.180;2023-06-10T04:32:36;7.93;;;4.38;;
70455;SDS011;57916;51.996;5.180;2023-06-10T04:35:05;10.63;;;4.50;;
70455;SDS011;57916;51.996;5.180;2023-06-10T04:37:33;10.93;;;4.50;;
70455;SDS011;57916;51.996;5.180;2023-06-10T04:40:01;10.77;;;4.78;;
70455;SDS011;57916;51.996;5.180;2023-06-10T04:42:28;8.30;;;4.50;;
70455;SDS011;57916;51.996;5.180;2023-06-10T04:44:56;6.72;;;5.00;;
70455;SDS011;57916;51.996;5.180;2023-06-10T04:47:25;9.10;;;5.30;;
70455;SDS011;57916;51.996;5.180;2023-06-10T04:49:53;9.23;;;4.88;;
70455;SDS011;57916;51.996;5.180;2023-06-10T04:52:20;7.13;;;4.50;;
70455;SDS011;57916;51.996;5.180;2023-06-10T04:54:48;6.68;;;4.20;;
70455;SDS011;57916;51.996;5.180;2023-06-10T04:57:15;7.20;;;4.10;;
70455;SDS011;57916;51.996;5.180;2023-06-10T04:59:42;10.15;;;4.43;;
70455;SDS011;57916;51.996;5.180;2023-06-10T05:02:09;5.50;;;4.30;;
70455;SDS011;57916;51.996;5.180;2023-06-10T05:04:36;8.30;;;4.35;;
70455;SDS011;57916;51.996;5.180;2023-06-10T05:07:03;6.95;;;4.15;;
70455;SDS011;57916;51.996;5.180;2023-06-10T05:09:31;6.65;;;4.40;;
70455;SDS011;57916;51.996;5.180;2023-06-10T05:11:59;7.93;;;4.47;;
70455;SDS011;57916;51.996;5.180;2023-06-10T05:14:26;7.28;;;4.18;;
70455;SDS011;57916;51.996;5.180;2023-06-10T05:16:54;10.82;;;4.90;;
70455;SDS011;57916;51.996;5.180;2023-06-10T05:19:20;8.30;;;4.53;;
70455;SDS011;57916;51.996;5.180;2023-06-10T05:21:48;6.93;;;4.03;;
70455;SDS011;57916;51.996;5.180;2023-06-10T05:24:15;6.63;;;4.25;;
70455;SDS011;57916;51.996;5.180;2023-06-10T05:26:42;9.83;;;5.20;;
70455;SDS011;57916;51.996;5.180;2023-06-10T05:29:09;7.47;;;4.75;;
70455;SDS011;57916;51.996;5.180;2023-06-10T05:31:37;5.82;;;2.92;;
70455;SDS011;57916;51.996;5.180;2023-06-10T05:34:04;6.70;;;3.60;;
70455;SDS011;57916;51.996;5.180;2023-06-10T05:36:31;9.37;;;4.43;;
70455;SDS011;57916;51.996;5.180;2023-06-10T05:38:59;5.00;;;4.30;;
70455;SDS011;57916;51.996;5.180;2023-06-10T05:41:27;8.80;;;4.85;;
70455;SDS011;57916;51.996;5.180;2023-06-10T05:43:54;9.70;;;4.90;;
70455;SDS011;57916;51.996;5.180;2023-06-10T05:46:21;9.98;;;4.72;;
70455;SDS011;57916;51.996;5.180;2023-06-10T05:48:48;6.93;;;4.13;;
70455;SDS011;57916;51.996;5.180;2023-06-10T05:51:15;8.07;;;4.78;;
70455;SDS011;57916;51.996;5.180;2023-06-10T05:53:43;6.85;;;4.03;;
70455;SDS011;57916;51.996;5.180;2023-06-10T05:56:10;6.97;;;4.65;;
70455;SDS011;57916;51.996;5.180;2023-06-10T05:58:38;10.52;;;4.40;;
70455;SDS011;57916;51.996;5.180;2023-06-10T06:01:05;5.97;;;3.60;;
70455;SDS011;57916;51.996;5.180;2023-06-10T06:03:32;9.25;;;4.85;;
70455;SDS011;57916;51.996;5.180;2023-06-10T06:05:59;8.75;;;4.40;;
70455;SDS011;57916;51.996;5.180;2023-06-10T06:08:26;9.25;;;4.35;;
70455;SDS011;57916;51.996;5.180;2023-06-10T06:10:53;6.60;;;3.97;;
70455;SDS011;57916;51.996;5.180;2023-06-10T06:13:21;9.50;;;4.40;;
70455;SDS011;57916;51.996;5.180;2023-06-10T06:15:48;13.50;;;5.43;;
70455;SDS011;57916;51.996;5.180;2023-06-10T06:18:16;4.80;;;3.50;;
70455;SDS011;57916;51.996;5.180;2023-06-10T06:20:45;9.37;;;4.60;;
70455;SDS011;57916;51.996;5.180;2023-06-10T06:23:12;7.78;;;5.00;;
70455;SDS011;57916;51.996;5.180;2023-06-10T06:25:39;4.53;;;3.60;;
70455;SDS011;57916;51.996;5.180;2023-06-10T06:28:07;7.18;;;4.45;;
70455;SDS011;57916;51.996;5.180;2023-06-10T06:30:37;6.82;;;4.07;;
70455;SDS011;57916;51.996;5.180;2023-06-10T06:33:05;4.95;;;3.85;;
70455;SDS011;57916;51.996;5.180;2023-06-10T06:35:32;12.40;;;4.70;;
70455;SDS011;57916;51.996;5.180;2023-06-10T06:38:00;7.95;;;4.53;;
70455;SDS011;57916;51.996;5.180;2023-06-10T06:40:28;6.75;;;4.68;;
70455;SDS011;57916;51.996;5.180;2023-06-10T06:42:56;7.57;;;4.10;;
70455;SDS011;57916;51.996;5.180;2023-06-10T06:45:52;7.90;;;3.60;;
70455;SDS011;57916;51.996;5.180;2023-06-10T06:48:19;7.45;;;4.43;;
70455;SDS011;57916;51.996;5.180;2023-06-10T06:50:46;5.47;;;4.10;;
70455;SDS011;57916;51.996;5.180;2023-06-10T06:53:13;10.68;;;4.45;;
70455;SDS011;57916;51.996;5.180;2023-06-10T06:55:41;8.55;;;4.13;;
70455;SDS011;57916;51.996;5.180;2023-06-10T06:58:08;7.10;;;4.73;;
70455;SDS011;57916;51.996;5.180;2023-06-10T07:00:35;6.78;;;4.18;;
70455;SDS011;57916;51.996;5.180;2023-06-10T07:03:03;7.88;;;4.03;;
70455;SDS011;57916;51.996;5.180;2023-06-10T07:05:30;6.72;;;4.07;;
70455;SDS011;57916;51.996;5.180;2023-06-10T07:07:57;6.60;;;3.92;;
70455;SDS011;57916;51.996;5.180;2023-06-10T07:10:25;9.15;;;3.85;;
70455;SDS011;57916;51.996;5.180;2023-06-10T07:12:52;7.70;;;4.18;;
70455;SDS011;57916;51.996;5.180;2023-06-10T07:15:20;6.40;;;4.00;;
70455;SDS011;57916;51.996;5.180;2023-06-10T07:17:47;10.32;;;3.90;;
70455;SDS011;57916;51.996;5.180;2023-06-10T07:20:14;10.63;;;4.00;;
70455;SDS011;57916;51.996;5.180;2023-06-10T07:22:42;7.00;;;3.72;;
70455;SDS011;57916;51.996;5.180;2023-06-10T07:25:09;6.78;;;4.22;;
70455;SDS011;57916;51.996;5.180;2023-06-10T07:27:36;10.05;;;4.03;;
70455;SDS011;57916;51.996;5.180;2023-06-10T07:30:04;7.63;;;4.10;;
70455;SDS011;57916;51.996;5.180;2023-06-10T07:32:34;6.35;;;3.97;;
70455;SDS011;57916;51.996;5.180;2023-06-10T07:35:01;7.78;;;4.13;;
70455;SDS011;57916;51.996;5.180;2023-06-10T07:37:29;5.25;;;3.42;;
70455;SDS011;57916;51.996;5.180;2023-06-10T07:39:56;4.32;;;3.70;;
70455;SDS011;57916;51.996;5.180;2023-06-10T07:42:23;5.18;;;3.97;;
70455;SDS011;57916;51.996;5.180;2023-06-10T07:44:50;5.93;;;3.92;;
70455;SDS011;57916;51.996;5.180;2023-06-10T07:47:17;5.82;;;3.58;;
70455;SDS011;57916;51.996;5.180;2023-06-10T07:49:45;7.47;;;3.97;;
70455;SDS011;57916;51.996;5.180;2023-06-10T07:52:12;8.45;;;4.10;;
70455;SDS011;57916;51.996;5.180;2023-06-10T07:54:39;7.05;;;3.92;;
70455;SDS011;57916;51.996;5.180;2023-06-10T07:57:06;6.68;;;3.88;;
70455;SDS011;57916;51.996;5.180;2023-06-10T07:59:33;7.88;;;3.90;;
70455;SDS011;57916;51.996;5.180;2023-06-10T08:02:00;10.63;;;4.43;;
70455;SDS011;57916;51.996;5.180;2023-06-10T08:04:28;7.20;;;4.07;;
70455;SDS011;57916;51.996;5.180;2023-06-10T08:06:57;7.50;;;3.78;;
70455;SDS011;57916;51.996;5.180;2023-06-10T08:09:24;3.95;;;3.35;;
70455;SDS011;57916;51.996;5.180;2023-06-10T08:11:51;4.03;;;3.10;;
70455;SDS011;57916;51.996;5.180;2023-06-10T08:14:18;6.85;;;3.72;;
70455;SDS011;57916;51.996;5.180;2023-06-10T08:16:45;7.68;;;3.85;;
70455;SDS011;57916;51.996;5.180;2023-06-10T08:19:13;6.63;;;3.73;;
70455;SDS011;57916;51.996;5.180;2023-06-10T08:21:40;6.53;;;3.45;;
70455;SDS011;57916;51.996;5.180;2023-06-10T08:24:07;3.63;;;3.22;;
70455;SDS011;57916;51.996;5.180;2023-06-10T08:26:34;11.15;;;3.40;;
70455;SDS011;57916;51.996;5.180;2023-06-10T08:29:01;11.27;;;4.20;;
70455;SDS011;57916;51.996;5.180;2023-06-10T08:31:28;9.38;;;3.28;;
70455;SDS011;57916;51.996;5.180;2023-06-10T08:33:55;5.32;;;3.50;;
70455;SDS011;57916;51.996;5.180;2023-06-10T08:36:22;5.18;;;3.70;;
70455;SDS011;57916;51.996;5.180;2023-06-10T08:38:51;4.10;;;3.45;;
70455;SDS011;57916;51.996;5.180;2023-06-10T08:41:18;7.35;;;3.75;;
70455;SDS011;57916;51.996;5.180;2023-06-10T08:44:08;5.78;;;3.55;;
70455;SDS011;57916;51.996;5.180;2023-06-10T08:46:41;5.32;;;3.80;;
70455;SDS011;57916;51.996;5.180;2023-06-10T08:49:12;3.83;;;3.17;;
70455;SDS011;57916;51.996;5.180;2023-06-10T08:51:44;6.07;;;4.07;;
70455;SDS011;57916;51.996;5.180;2023-06-10T08:54:15;9.20;;;3.28;;
70455;SDS011;57916;51.996;5.180;2023-06-10T08:56:48;3.88;;;2.83;;
70455;SDS011;57916;51.996;5.180;2023-06-10T08:59:17;6.38;;;3.65;;
70455;SDS011;57916;51.996;5.180;2023-06-10T09:01:46;7.03;;;3.67;;
70455;SDS011;57916;51.996;5.180;2023-06-10T09:04:14;7.63;;;3.47;;
70455;SDS011;57916;51.996;5.180;2023-06-10T09:06:43;8.82;;;3.60;;
70455;SDS011;57916;51.996;5.180;2023-06-10T09:09:11;5.80;;;3.50;;
70455;SDS011;57916;51.996;5.180;2023-06-10T09:11:38;5.65;;;3.50;;
70455;SDS011;57916;51.996;5.180;2023-06-10T09:14:08;7.00;;;3.40;;
70455;SDS011;57916;51.996;5.180;2023-06-10T09:16:35;4.25;;;3.60;;
70455;SDS011;57916;51.996;5.180;2023-06-10T09:19:02;8.00;;;3.70;;
70455;SDS011;57916;51.996;5.180;2023-06-10T09:21:34;5.47;;;2.72;;
70455;SDS011;57916;51.996;5.180;2023-06-10T09:24:05;4.68;;;3.33;;
70455;SDS011;57916;51.996;5.180;2023-06-10T09:26:32;8.05;;;2.53;;
70455;SDS011;57916;51.996;5.180;2023-06-10T09:29:07;6.40;;;3.33;;
70455;SDS011;57916;51.996;5.180;2023-06-10T09:31:38;6.93;;;3.60;;
70455;SDS011;57916;51.996;5.180;2023-06-10T09:34:10;8.60;;;3.40;;
70455;SDS011;57916;51.996;5.180;2023-06-10T09:36:38;5.07;;;3.50;;
70455;SDS011;57916;51.996;5.180;2023-06-10T09:39:13;12.85;;;3.50;;
70455;SDS011;57916;51.996;5.180;2023-06-10T09:41:42;8.88;;;3.70;;
70455;SDS011;57916;51.996;5.180;2023-06-10T09:44:12;10.52;;;3.50;;
70455;SDS011;57916;51.996;5.180;2023-06-10T09:46:41;12.32;;;3.65;;
70455;SDS011;57916;51.996;5.180;2023-06-10T09:49:08;5.32;;;3.25;;
70455;SDS011;57916;51.996;5.180;2023-06-10T09:51:35;7.97;;;3.33;;
70455;SDS011;57916;51.996;5.180;2023-06-10T09:54:03;9.68;;;3.40;;
70455;SDS011;57916;51.996;5.180;2023-06-10T09:56:37;4.82;;;3.10;;
70455;SDS011;57916;51.996;5.180;2023-06-10T09:59:04;4.20;;;2.90;;
70455;SDS011;57916;51.996;5.180;2023-06-10T10:01:32;3.30;;;2.80;;
70455;SDS011;57916;51.996;5.180;2023-06-10T10:03:59;4.85;;;2.92;;
70455;SDS011;57916;51.996;5.180;2023-06-10T10:06:27;6.00;;;2.85;;
70455;SDS011;57916;51.996;5.180;2023-06-10T10:08:56;5.43;;;3.47;;
70455;SDS011;57916;51.996;5.180;2023-06-10T10:11:23;7.87;;;3.50;;
70455;SDS011;57916;51.996;5.180;2023-06-10T10:13:52;5.45;;;3.28;;
70455;SDS011;57916;51.996;5.180;2023-06-10T10:16:20;4.57;;;2.73;;
70455;SDS011;57916;51.996;5.180;2023-06-10T10:18:55;3.83;;;3.15;;
70455;SDS011;57916;51.996;5.180;2023-06-10T10:21:24;3.13;;;2.92;;
70455;SDS011;57916;51.996;5.180;2023-06-10T10:26:21;4.65;;;2.97;;
70455;SDS011;57916;51.996;5.180;2023-06-10T10:28:51;8.68;;;3.20;;
70455;SDS011;57916;51.996;5.180;2023-06-10T10:31:41;3.80;;;2.03;;
70455;SDS011;57916;51.996;5.180;2023-06-10T10:34:15;4.20;;;3.45;;
70455;SDS011;57916;51.996;5.180;2023-06-10T10:36:45;6.53;;;3.17;;
70455;SDS011;57916;51.996;5.180;2023-06-10T10:39:14;5.00;;;3.10;;
70455;SDS011;57916;51.996;5.180;2023-06-10T10:41:43;3.53;;;3.22;;
70455;SDS011;57916;51.996;5.180;2023-06-10T10:44:10;3.33;;;3.00;;
70455;SDS011;57916;51.996;5.180;2023-06-10T10:46:42;6.18;;;2.88;;
70455;SDS011;57916;51.996;5.180;2023-06-10T10:49:11;3.60;;;3.28;;
70455;SDS011;57916;51.996;5.180;2023-06-10T10:52:01;6.72;;;3.20;;
70455;SDS011;57916;51.996;5.180;2023-06-10T10:54:29;8.80;;;3.30;;
70455;SDS011;57916;51.996;5.180;2023-06-10T11:02:15;4.65;;;3.40;;
70455;SDS011;57916;51.996;5.180;2023-06-10T11:04:45;4.82;;;3.13;;
70455;SDS011;57916;51.996;5.180;2023-06-10T11:07:14;6.30;;;2.95;;
70455;SDS011;57916;51.996;5.180;2023-06-10T11:09:56;5.05;;;3.22;;
70455;SDS011;57916;51.996;5.180;2023-06-10T11:15:12;3.13;;;2.83;;
70455;SDS011;57916;51.996;5.180;2023-06-10T11:20:54;7.63;;;2.80;;
70455;SDS011;57916;51.996;5.180;2023-06-10T11:23:31;5.28;;;3.22;;
70455;SDS011;57916;51.996;5.180;2023-06-10T11:29:05;9.20;;;3.53;;
70455;SDS011;57916;51.996;5.180;2023-06-10T11:31:38;6.32;;;3.25;;
70455;SDS011;57916;51.996;5.180;2023-06-10T11:34:08;4.05;;;3.17;;
70455;SDS011;57916;51.996;5.180;2023-06-10T11:36:39;5.97;;;3.00;;
70455;SDS011;57916;51.996;5.180;2023-06-10T11:39:17;5.68;;;2.90;;
70455;SDS011;57916;51.996;5.180;2023-06-10T11:41:45;3.60;;;3.03;;
70455;SDS011;57916;51.996;5.180;2023-06-10T11:44:13;3.42;;;3.00;;
70455;SDS011;57916;51.996;5.180;2023-06-10T11:46:45;4.75;;;3.03;;
70455;SDS011;57916;51.996;5.180;2023-06-10T11:49:14;2.72;;;2.53;;
70455;SDS011;57916;51.996;5.180;2023-06-10T11:51:41;6.20;;;3.00;;
70455;SDS011;57916;51.996;5.180;2023-06-10T11:54:16;5.90;;;3.13;;
70455;SDS011;57916;51.996;5.180;2023-06-10T11:56:43;3.60;;;3.00;;
70455;SDS011;57916;51.996;5.180;2023-06-10T11:59:11;4.50;;;3.10;;
70455;SDS011;57916;51.996;5.180;2023-06-10T12:01:42;5.60;;;3.00;;
70455;SDS011;57916;51.996;5.180;2023-06-10T12:04:11;4.78;;;2.78;;
70455;SDS011;57916;51.996;5.180;2023-06-10T12:06:43;5.27;;;3.00;;
70455;SDS011;57916;51.996;5.180;2023-06-10T12:20:01;5.93;;;3.20;;
70455;SDS011;57916;51.996;5.180;2023-06-10T12:22:41;3.42;;;3.00;;
70455;SDS011;57916;51.996;5.180;2023-06-10T12:25:09;4.07;;;3.00;;
70455;SDS011;57916;51.996;5.180;2023-06-10T12:27:39;6.90;;;3.00;;
70455;SDS011;57916;51.996;5.180;2023-06-10T12:30:18;3.50;;;2.92;;
70455;SDS011;57916;51.996;5.180;2023-06-10T12:32:51;5.10;;;2.80;;
70455;SDS011;57916;51.996;5.180;2023-06-10T12:35:22;6.47;;;3.20;;
70455;SDS011;57916;51.996;5.180;2023-06-10T12:40:31;4.63;;;3.30;;
70455;SDS011;57916;51.996;5.180;2023-06-10T12:43:02;3.25;;;3.05;;
70455;SDS011;57916;51.996;5.180;2023-06-10T12:45:30;4.47;;;3.15;;
70455;SDS011;57916;51.996;5.180;2023-06-10T12:48:05;3.10;;;2.77;;
70455;SDS011;57916;51.996;5.180;2023-06-10T12:50:39;2.90;;;2.10;;
70455;SDS011;57916;51.996;5.180;2023-06-10T12:53:08;4.72;;;3.13;;
70455;SDS011;57916;51.996;5.180;2023-06-10T12:55:36;4.65;;;2.92;;
70455;SDS011;57916;51.996;5.180;2023-06-10T12:58:04;6.47;;;3.22;;
70455;SDS011;57916;51.996;5.180;2023-06-10T13:00:33;5.97;;;3.00;;
70455;SDS011;57916;51.996;5.180;2023-06-10T13:03:01;6.53;;;3.30;;
70455;SDS011;57916;51.996;5.180;2023-06-10T13:05:29;5.32;;;3.00;;
70455;SDS011;57916;51.996;5.180;2023-06-10T13:07:57;8.43;;;3.15;;
70455;SDS011;57916;51.996;5.180;2023-06-10T13:10:24;3.22;;;2.92;;
70455;SDS011;57916;51.996;5.180;2023-06-10T13:12:52;3.47;;;3.10;;
70455;SDS011;57916;51.996;5.180;2023-06-10T13:15:21;5.38;;;3.00;;
70455;SDS011;57916;51.996;5.180;2023-06-10T13:17:48;4.85;;;2.92;;
70455;SDS011;57916;51.996;5.180;2023-06-10T13:20:17;6.13;;;3.33;;
70455;SDS011;57916;51.996;5.180;2023-06-10T13:22:45;4.45;;;3.10;;
70455;SDS011;57916;51.996;5.180;2023-06-10T13:25:12;8.38;;;2.90;;
70455;SDS011;57916;51.996;5.180;2023-06-10T13:27:40;3.85;;;2.85;;
70455;SDS011;57916;51.996;5.180;2023-06-10T13:30:09;3.83;;;3.00;;
70455;SDS011;57916;51.996;5.180;2023-06-10T13:32:37;8.25;;;3.20;;
70455;SDS011;57916;51.996;5.180;2023-06-10T13:35:05;3.40;;;3.10;;
70455;SDS011;57916;51.996;5.180;2023-06-10T13:37:34;4.00;;;2.97;;
70455;SDS011;57916;51.996;5.180;2023-06-10T13:40:03;3.50;;;3.20;;
70455;SDS011;57916;51.996;5.180;2023-06-10T13:42:31;3.78;;;3.00;;
70455;SDS011;57916;51.996;5.180;2023-06-10T13:44:58;5.13;;;3.25;;
70455;SDS011;57916;51.996;5.180;2023-06-10T13:47:25;6.82;;;2.92;;
70455;SDS011;57916;51.996;5.180;2023-06-10T13:49:53;3.60;;;3.00;;
70455;SDS011;57916;51.996;5.180;2023-06-10T13:52:20;4.57;;;3.30;;
70455;SDS011;57916;51.996;5.180;2023-06-10T13:54:47;9.70;;;3.47;;
70455;SDS011;57916;51.996;5.180;2023-06-10T13:57:14;3.53;;;3.22;;
70455;SDS011;57916;51.996;5.180;2023-06-10T13:59:43;2.50;;;2.30;;
70455;SDS011;57916;51.996;5.180;2023-06-10T14:02:11;4.37;;;3.20;;
70455;SDS011;57916;51.996;5.180;2023-06-10T14:04:38;7.20;;;3.28;;
70455;SDS011;57916;51.996;5.180;2023-06-10T14:07:05;6.18;;;3.60;;
70455;SDS011;57916;51.996;5.180;2023-06-10T14:09:32;7.55;;;3.30;;
70455;SDS011;57916;51.996;5.180;2023-06-10T14:11:59;12.48;;;8.50;;
70455;SDS011;57916;51.996;5.180;2023-06-10T14:14:29;4.60;;;3.80;;
70455;SDS011;57916;51.996;5.180;2023-06-10T14:16:57;4.40;;;3.30;;
70455;SDS011;57916;51.996;5.180;2023-06-10T14:19:25;4.18;;;3.10;;
70455;SDS011;57916;51.996;5.180;2023-06-10T14:21:52;6.10;;;3.20;;
70455;SDS011;57916;51.996;5.180;2023-06-10T14:24:20;3.38;;;2.63;;
70455;SDS011;57916;51.996;5.180;2023-06-10T14:26:47;4.13;;;3.20;;
70455;SDS011;57916;51.996;5.180;2023-06-10T14:29:14;7.38;;;5.75;;
70455;SDS011;57916;51.996;5.180;2023-06-10T14:31:41;8.63;;;5.40;;
70455;SDS011;57916;51.996;5.180;2023-06-10T14:34:08;8.50;;;5.22;;
70455;SDS011;57916;51.996;5.180;2023-06-10T14:36:36;5.40;;;3.50;;
70455;SDS011;57916;51.996;5.180;2023-06-10T14:39:03;9.73;;;3.50;;
70455;SDS011;57916;51.996;5.180;2023-06-10T14:41:30;3.83;;;3.30;;
70455;SDS011;57916;51.996;5.180;2023-06-10T14:43:58;3.15;;;2.90;;
70455;SDS011;57916;51.996;5.180;2023-06-10T14:46:25;3.65;;;3.10;;
70455;SDS011;57916;51.996;5.180;2023-06-10T14:48:53;4.60;;;3.00;;
70455;SDS011;57916;51.996;5.180;2023-06-10T14:51:21;3.70;;;3.20;;
70455;SDS011;57916;51.996;5.180;2023-06-10T14:53:48;5.60;;;3.25;;
70455;SDS011;57916;51.996;5.180;2023-06-10T14:56:15;2.88;;;2.63;;
70455;SDS011;57916;51.996;5.180;2023-06-10T14:58:42;7.47;;;3.10;;
70455;SDS011;57916;51.996;5.180;2023-06-10T15:01:09;4.85;;;2.97;;
70455;SDS011;57916;51.996;5.180;2023-06-10T15:03:36;5.43;;;3.20;;
70455;SDS011;57916;51.996;5.180;2023-06-10T15:06:04;7.07;;;3.03;;
70455;SDS011;57916;51.996;5.180;2023-06-10T15:08:31;6.40;;;3.00;;
70455;SDS011;57916;51.996;5.180;2023-06-10T15:10:58;4.30;;;3.10;;
70455;SDS011;57916;51.996;5.180;2023-06-10T15:13:24;5.30;;;3.30;;
70455;SDS011;57916;51.996;5.180;2023-06-10T15:15:51;7.22;;;2.92;;
70455;SDS011;57916;51.996;5.180;2023-06-10T15:18:19;4.13;;;3.30;;
70455;SDS011;57916;51.996;5.180;2023-06-10T15:20:46;3.50;;;2.97;;
70455;SDS011;57916;51.996;5.180;2023-06-10T15:23:13;3.88;;;3.00;;
70455;SDS011;57916;51.996;5.180;2023-06-10T15:25:40;3.20;;;2.90;;